Time;durP1;ratioP1;P1;durP2;ratioP2;P2;SDS_P1;SDS_P2;PMS_P1;PMS_P2;Temp;Humidity;BMP_temperature;BMP_pressure;BME280_temperature;BME280_humidity;BME280_pressure;Samples;Min_cycle;Max_cycle;Signal;HPM_P1;HPM_P2
2023/01/06 00:01:17;;;;;;;33.20;12.57;;;10.60;99.90;;;;;;5060133;28;20041;-85
2023/01/06 00:03:43;;;;;;;38.50;13.18;;;10.60;99.90;;;;;;5048541;28;20086;-85
2023/01/06 00:06:10;;;;;;;33.95;11.35;;;10.60;99.90;;;;;;5048506;28;20341;-86
2023/01/06 00:08:36;;;;;;;32.75;11.90;;;10.60;99.90;;;;;;5064569;28;20131;-86
2023/01/06 00:11:07;;;;;;;40.55;11.63;;;10.60;99.90;;;;;;5047936;28;20451;-85
2023/01/06 00:13:32;;;;;;;34.03;10.43;;;10.60;99.90;;;;;;5047727;28;20479;-86
2023/01/06 00:16:03;;;;;;;34.42;10.82;;;10.60;99.90;;;;;;5060350;28;20141;-86
2023/01/06 00:18:28;;;;;;;30.00;9.75;;;10.70;99.90;;;;;;5048641;28;20044;-86
2023/01/06 00:20:57;;;;;;;30.77;10.52;;;10.70;99.90;;;;;;5045794;28;20093;-86
2023/01/06 00:23:23;;;;;;;28.50;10.15;;;10.70;99.90;;;;;;5064933;28;20032;-86
2023/01/06 00:25:50;;;;;;;27.90;9.40;;;10.70;99.90;;;;;;5048498;28;20045;-85
2023/01/06 00:28:16;;;;;;;31.65;10.15;;;10.70;99.90;;;;;;5046379;28;20060;-85
2023/01/06 00:30:42;;;;;;;36.47;10.20;;;10.70;99.90;;;;;;5078126;28;20064;-85
2023/01/06 00:33:07;;;;;;;29.05;9.60;;;10.70;99.90;;;;;;5062358;28;20047;-86
2023/01/06 00:35:33;;;;;;;26.65;8.32;;;10.60;99.90;;;;;;5048407;28;20396;-85
2023/01/06 00:37:58;;;;;;;22.33;7.15;;;10.60;99.90;;;;;;5045803;28;20496;-86
2023/01/06 00:40:24;;;;;;;23.13;8.23;;;10.70;99.90;;;;;;5047259;28;20079;-86
2023/01/06 00:42:50;;;;;;;22.85;7.32;;;10.70;99.90;;;;;;5064723;28;20508;-85
2023/01/06 00:45:15;;;;;;;22.95;7.50;;;10.70;99.90;;;;;;5046043;28;20397;-86
2023/01/06 00:47:41;;;;;;;21.95;7.63;;;10.70;99.90;;;;;;5047851;28;20435;-86
2023/01/06 00:50:07;;;;;;;19.60;7.55;;;10.80;99.90;;;;;;5047967;28;20068;-86
2023/01/06 00:52:33;;;;;;;18.92;7.22;;;10.80;99.90;;;;;;5063202;28;20070;-85
2023/01/06 00:54:59;;;;;;;30.92;7.95;;;10.80;99.90;;;;;;5064093;28;20044;-86
2023/01/06 00:57:25;;;;;;;21.25;7.05;;;10.80;99.90;;;;;;5063734;28;20528;-85
2023/01/06 00:59:50;;;;;;;21.83;7.70;;;10.80;99.90;;;;;;5046821;28;20040;-85
2023/01/06 01:02:16;;;;;;;15.80;6.72;;;10.80;99.90;;;;;;5063381;28;20029;-86
2023/01/06 01:04:42;;;;;;;22.95;6.93;;;10.80;99.90;;;;;;5047569;28;20058;-86
2023/01/06 01:07:08;;;;;;;17.30;5.35;;;10.80;99.90;;;;;;5064247;28;20075;-85
2023/01/06 01:09:34;;;;;;;16.95;5.88;;;10.80;99.90;;;;;;5062428;28;20050;-86
2023/01/06 01:12:11;;;;;;;15.10;5.22;;;10.80;99.90;;;;;;5062656;28;20040;-86
2023/01/06 01:14:42;;;;;;;14.93;4.95;;;10.80;99.90;;;;;;5046040;28;20039;-86
2023/01/06 01:17:09;;;;;;;18.65;6.15;;;10.80;99.90;;;;;;5047276;28;20063;-86
2023/01/06 01:19:36;;;;;;;14.23;4.45;;;10.80;99.90;;;;;;5075863;28;20090;-85
2023/01/06 01:22:02;;;;;;;15.02;4.40;;;10.80;99.90;;;;;;5046565;28;20074;-86
2023/01/06 01:24:28;;;;;;;11.35;4.05;;;10.80;99.90;;;;;;5046828;28;20067;-85
2023/01/06 01:26:53;;;;;;;14.48;4.60;;;10.80;99.90;;;;;;5061501;28;20531;-85
2023/01/06 01:29:20;;;;;;;12.63;4.20;;;10.80;99.90;;;;;;5063426;28;20047;-86
2023/01/06 01:31:46;;;;;;;15.80;4.63;;;10.70;99.90;;;;;;5061419;28;20041;-85
2023/01/06 01:34:13;;;;;;;13.70;4.40;;;10.70;99.90;;;;;;5046674;28;20150;-85
2023/01/06 01:36:40;;;;;;;16.35;5.65;;;10.70;99.90;;;;;;5045957;28;20394;-85
2023/01/06 01:39:06;;;;;;;12.00;4.65;;;10.70;99.90;;;;;;5047306;28;20044;-86
2023/01/06 01:41:31;;;;;;;17.30;5.72;;;10.70;99.90;;;;;;5060651;28;20049;-87
2023/01/06 01:44:21;;;;;;;18.27;5.60;;;10.80;99.90;;;;;;5046930;28;20041;-85
2023/01/06 01:46:47;;;;;;;13.95;4.97;;;10.70;99.90;;;;;;5061928;28;20059;-86
2023/01/06 01:49:23;;;;;;;14.50;5.38;;;10.70;99.90;;;;;;5043495;28;20461;-85
2023/01/06 01:51:53;;;;;;;13.15;5.82;;;10.70;99.90;;;;;;5050980;28;20052;-85
2023/01/06 01:54:23;;;;;;;14.98;6.00;;;10.70;99.90;;;;;;5065375;28;20060;-85
2023/01/06 01:56:55;;;;;;;15.65;6.30;;;10.70;99.90;;;;;;5048872;28;20534;-85
2023/01/06 01:59:27;;;;;;;14.93;6.40;;;10.70;99.90;;;;;;5065253;28;20044;-85
2023/01/06 02:01:53;;;;;;;14.77;6.13;;;10.70;99.90;;;;;;5065259;28;20036;-85
2023/01/06 02:04:21;;;;;;;14.70;6.63;;;10.70;99.90;;;;;;5051390;28;20036;-86
2023/01/06 02:06:49;;;;;;;14.18;7.00;;;10.70;99.90;;;;;;5050276;28;20131;-85
2023/01/06 02:09:29;;;;;;;12.82;6.82;;;10.70;99.90;;;;;;5049032;28;20040;-86
2023/01/06 02:11:56;;;;;;;15.90;7.13;;;10.70;99.90;;;;;;5064007;28;20584;-86
2023/01/06 02:14:26;;;;;;;16.88;6.70;;;10.70;99.90;;;;;;5050867;28;20483;-86
2023/01/06 02:16:54;;;;;;;14.82;6.50;;;10.70;99.90;;;;;;5066316;28;20032;-86
2023/01/06 02:19:52;;;;;;;14.32;6.35;;;10.70;99.90;;;;;;5048437;28;20051;-86
2023/01/06 02:22:55;;;;;;;13.20;5.63;;;10.70;99.90;;;;;;5048384;28;20079;-86
2023/01/06 02:25:40;;;;;;;14.40;6.00;;;10.70;99.90;;;;;;5064912;28;20045;-86
2023/01/06 02:28:27;;;;;;;20.27;6.25;;;10.60;99.90;;;;;;5047792;28;20043;-85
2023/01/06 02:31:17;;;;;;;11.48;5.40;;;10.70;99.90;;;;;;5046298;28;20036;-86
2023/01/06 02:33:53;;;;;;;11.85;5.45;;;10.70;99.90;;;;;;5050007;28;20037;-85
2023/01/06 02:36:50;;;;;;;13.52;5.85;;;10.70;99.90;;;;;;5067111;28;20044;-86
2023/01/06 02:39:37;;;;;;;10.60;5.22;;;10.70;99.90;;;;;;5049660;28;20879;-86
2023/01/06 02:42:15;;;;;;;13.15;5.72;;;10.60;99.90;;;;;;5065833;28;20044;-86
2023/01/06 02:44:57;;;;;;;11.95;5.53;;;10.60;99.90;;;;;;5049341;28;20102;-86
2023/01/06 02:47:32;;;;;;;13.48;4.93;;;10.60;99.90;;;;;;5063073;28;20047;-86
2023/01/06 02:50:20;;;;;;;11.27;5.75;;;10.60;99.90;;;;;;5062993;28;20404;-85
2023/01/06 02:52:59;;;;;;;10.60;4.82;;;10.60;99.90;;;;;;5049385;28;20044;-85
2023/01/06 02:55:37;;;;;;;11.23;5.35;;;10.60;99.90;;;;;;5065719;28;20131;-86
2023/01/06 02:58:08;;;;;;;12.18;4.68;;;10.50;99.90;;;;;;5048622;28;20040;-86
2023/01/06 03:00:41;;;;;;;11.93;5.15;;;10.50;99.90;;;;;;5049985;28;20247;-86
2023/01/06 03:03:12;;;;;;;11.20;4.80;;;10.50;99.90;;;;;;5047344;28;20059;-86
2023/01/06 03:05:40;;;;;;;12.45;5.20;;;10.50;99.90;;;;;;5065140;28;20036;-86
2023/01/06 03:08:30;;;;;;;9.57;4.57;;;10.50;99.90;;;;;;5050256;28;20655;-85
2023/01/06 03:10:58;;;;;;;13.77;5.15;;;10.50;99.90;;;;;;5048596;28;20412;-86
2023/01/06 03:13:32;;;;;;;10.52;4.80;;;10.50;99.90;;;;;;5063108;28;20045;-86
2023/01/06 03:15:58;;;;;;;8.32;4.22;;;10.50;99.90;;;;;;5050701;28;20138;-86
2023/01/06 03:18:24;;;;;;;10.80;5.05;;;10.50;99.90;;;;;;5050206;28;20127;-86
2023/01/06 03:20:52;;;;;;;11.80;5.10;;;10.50;99.90;;;;;;5065314;28;20480;-86
2023/01/06 03:23:19;;;;;;;10.23;5.15;;;10.50;99.90;;;;;;5049375;28;20041;-86
2023/01/06 03:25:44;;;;;;;11.50;5.68;;;10.50;99.90;;;;;;5050080;28;20047;-86
2023/01/06 03:28:10;;;;;;;11.30;5.28;;;10.50;99.90;;;;;;5061513;28;20028;-86
2023/01/06 03:30:52;;;;;;;10.18;4.95;;;10.50;99.90;;;;;;5050190;28;20068;-86
2023/01/06 03:33:27;;;;;;;8.02;5.07;;;10.50;99.90;;;;;;5059553;28;20053;-86
2023/01/06 03:36:17;;;;;;;12.32;5.55;;;10.50;99.90;;;;;;5065320;28;20060;-86
2023/01/06 03:39:07;;;;;;;10.50;5.03;;;10.50;99.90;;;;;;5060982;28;20036;-86
2023/01/06 03:44:50;;;;;;;9.77;5.18;;;10.50;99.90;;;;;;5061531;28;20078;-86
2023/01/06 03:47:26;;;;;;;8.90;6.10;;;10.50;99.90;;;;;;5062163;28;20036;-86
2023/01/06 03:50:04;;;;;;;9.70;6.10;;;10.50;99.90;;;;;;5065365;28;20098;-86
2023/01/06 03:52:38;;;;;;;10.55;6.30;;;10.50;99.90;;;;;;5048502;28;20082;-85
2023/01/06 03:55:13;;;;;;;10.98;6.38;;;10.50;99.90;;;;;;5064587;28;20036;-86
2023/01/06 03:57:43;;;;;;;11.48;7.43;;;10.50;99.90;;;;;;5046791;28;20052;-85
2023/01/06 04:00:15;;;;;;;13.23;7.47;;;10.50;99.90;;;;;;5061952;28;20032;-86
2023/01/06 04:02:41;;;;;;;11.55;7.35;;;10.50;99.90;;;;;;5064618;28;20549;-85
2023/01/06 04:05:17;;;;;;;15.40;8.27;;;10.50;99.90;;;;;;5064393;28;20029;-86
2023/01/06 04:07:43;;;;;;;14.50;8.48;;;10.50;99.90;;;;;;5046801;28;20059;-86
2023/01/06 04:10:11;;;;;;;14.27;9.25;;;10.50;99.90;;;;;;5047432;28;20072;-86
2023/01/06 04:12:37;;;;;;;11.25;7.78;;;10.50;99.90;;;;;;5058260;28;20051;-85
2023/01/06 04:15:05;;;;;;;13.55;8.48;;;10.50;99.90;;;;;;5047542;28;20466;-86
2023/01/06 04:17:30;;;;;;;16.15;8.55;;;10.50;99.90;;;;;;5063978;28;20052;-86
2023/01/06 04:19:56;;;;;;;12.65;6.97;;;10.50;99.90;;;;;;5048010;28;20032;-86
2023/01/06 04:22:22;;;;;;;13.30;7.25;;;10.50;99.90;;;;;;5048338;28;20114;-86
2023/01/06 04:24:47;;;;;;;10.95;6.60;;;10.50;99.90;;;;;;5048196;28;20051;-86
2023/01/06 04:27:13;;;;;;;11.02;6.30;;;10.50;99.90;;;;;;5043985;28;20028;-86
2023/01/06 04:29:38;;;;;;;12.30;6.40;;;10.50;99.90;;;;;;5062424;28;20044;-86
2023/01/06 04:32:04;;;;;;;9.35;5.93;;;10.50;99.90;;;;;;5047199;28;20040;-86
2023/01/06 04:34:30;;;;;;;8.57;5.65;;;10.50;99.90;;;;;;5045585;28;20040;-85
2023/01/06 04:36:55;;;;;;;11.75;5.95;;;10.50;99.90;;;;;;5048374;28;20040;-85
2023/01/06 04:39:21;;;;;;;11.13;5.97;;;10.60;99.90;;;;;;5047497;28;20036;-86
2023/01/06 04:41:46;;;;;;;9.32;5.55;;;10.60;99.90;;;;;;5045999;28;20068;-86
2023/01/06 04:44:12;;;;;;;10.52;5.90;;;10.60;99.90;;;;;;5061134;28;20043;-85
2023/01/06 04:46:37;;;;;;;10.18;5.50;;;10.60;99.90;;;;;;5047121;28;20040;-86
2023/01/06 04:49:03;;;;;;;7.88;4.97;;;10.60;99.90;;;;;;5062440;28;20071;-86
2023/01/06 04:51:29;;;;;;;7.80;4.75;;;10.60;99.90;;;;;;5062474;28;20040;-86
2023/01/06 04:53:55;;;;;;;13.05;5.38;;;10.60;99.90;;;;;;5063535;28;20086;-86
2023/01/06 04:56:21;;;;;;;8.02;4.95;;;10.60;99.90;;;;;;5046476;28;20069;-86
2023/01/06 04:58:46;;;;;;;11.77;5.05;;;10.60;99.90;;;;;;5065030;28;20032;-86
2023/01/06 05:01:13;;;;;;;7.15;4.15;;;10.60;99.90;;;;;;5059712;28;20086;-86
2023/01/06 05:03:39;;;;;;;10.20;5.07;;;10.60;99.90;;;;;;5061766;28;20036;-86
2023/01/06 05:06:10;;;;;;;9.73;4.60;;;10.60;99.90;;;;;;5062954;28;20078;-85
2023/01/06 05:08:37;;;;;;;8.93;4.60;;;10.60;99.90;;;;;;5080466;28;20468;-85
2023/01/06 05:11:11;;;;;;;8.65;4.55;;;10.60;99.90;;;;;;5046963;28;20059;-86
2023/01/06 05:13:37;;;;;;;8.20;4.05;;;10.60;99.90;;;;;;5060810;28;20055;-86
2023/01/06 05:16:15;;;;;;;7.22;4.40;;;10.60;99.90;;;;;;5061879;28;20047;-85
2023/01/06 05:18:41;;;;;;;7.85;4.53;;;10.60;99.90;;;;;;5060795;28;20044;-86
2023/01/06 05:21:06;;;;;;;8.23;4.15;;;10.70;99.90;;;;;;5046058;28;20036;-86
2023/01/06 05:23:32;;;;;;;6.32;3.90;;;10.70;99.90;;;;;;5062630;28;20036;-86
2023/01/06 05:25:58;;;;;;;6.47;4.35;;;10.70;99.90;;;;;;5048137;28;20041;-85
2023/01/06 05:28:24;;;;;;;9.60;4.22;;;10.70;99.90;;;;;;5062451;28;20502;-86
2023/01/06 05:30:49;;;;;;;7.72;4.03;;;10.70;99.90;;;;;;5047821;28;20025;-85
2023/01/06 05:33:15;;;;;;;8.70;4.95;;;10.70;99.90;;;;;;5061656;28;20036;-85
2023/01/06 05:35:40;;;;;;;10.27;5.13;;;10.60;99.90;;;;;;5063860;28;20075;-86
2023/01/06 05:38:06;;;;;;;7.18;5.03;;;10.60;99.90;;;;;;5048029;28;20419;-86
2023/01/06 05:40:33;;;;;;;8.27;5.82;;;10.60;99.90;;;;;;5047901;28;20057;-86
2023/01/06 05:42:59;;;;;;;10.85;5.85;;;10.60;99.90;;;;;;5061663;28;20044;-86
2023/01/06 05:45:25;;;;;;;9.95;6.10;;;10.60;99.90;;;;;;5046475;28;20400;-85
2023/01/06 05:47:51;;;;;;;9.38;6.75;;;10.50;99.90;;;;;;5045986;28;20079;-86
2023/01/06 05:50:17;;;;;;;12.05;7.72;;;10.40;99.90;;;;;;5078778;28;20127;-86
2023/01/06 05:52:42;;;;;;;11.80;7.68;;;10.40;99.90;;;;;;5058931;28;20124;-86
2023/01/06 05:55:09;;;;;;;13.02;8.10;;;10.30;99.90;;;;;;5048214;28;20477;-86
2023/01/06 05:57:35;;;;;;;12.13;8.30;;;10.20;99.90;;;;;;5047379;28;20839;-86
2023/01/06 06:00:04;;;;;;;13.98;9.57;;;10.20;99.90;;;;;;5044686;28;20131;-86
2023/01/06 06:02:29;;;;;;;15.00;8.80;;;10.10;99.90;;;;;;5060569;28;20051;-86
2023/01/06 06:04:55;;;;;;;16.00;10.70;;;10.10;99.90;;;;;;5060396;28;20032;-86
2023/01/06 06:07:21;;;;;;;13.32;9.50;;;10.10;99.90;;;;;;5062433;28;20137;-85
2023/01/06 06:09:46;;;;;;;15.43;10.05;;;10.10;99.90;;;;;;5045552;28;20527;-85
2023/01/06 06:12:12;;;;;;;16.83;10.13;;;10.10;99.90;;;;;;5047427;28;20048;-86
2023/01/06 06:14:38;;;;;;;13.15;8.90;;;10.00;99.90;;;;;;5047057;28;20049;-85
2023/01/06 06:17:03;;;;;;;15.38;9.98;;;10.00;99.90;;;;;;5047173;28;20045;-86
2023/01/06 06:19:29;;;;;;;12.77;8.75;;;10.00;99.90;;;;;;5040018;28;20508;-85
2023/01/06 06:21:55;;;;;;;15.52;10.80;;;10.00;99.90;;;;;;5038511;28;20064;-85
2023/01/06 06:24:20;;;;;;;17.75;10.40;;;10.00;99.90;;;;;;5045390;28;20040;-85
2023/01/06 06:26:46;;;;;;;13.80;9.88;;;10.00;99.90;;;;;;5042511;28;20127;-85
2023/01/06 06:29:11;;;;;;;15.55;10.00;;;10.00;99.90;;;;;;5063009;28;20045;-85
2023/01/06 06:31:37;;;;;;;14.70;9.55;;;10.00;99.90;;;;;;5062775;28;20052;-85
2023/01/06 06:34:03;;;;;;;15.07;9.25;;;10.00;99.90;;;;;;5046585;28;20119;-85
2023/01/06 06:36:30;;;;;;;13.75;9.48;;;10.00;99.90;;;;;;5061150;28;20041;-86
2023/01/06 06:38:56;;;;;;;13.80;9.60;;;10.00;99.90;;;;;;5049368;28;20174;-86
2023/01/06 06:41:23;;;;;;;13.55;8.05;;;10.00;99.90;;;;;;5048967;28;20576;-86
2023/01/06 06:43:49;;;;;;;12.65;7.78;;;10.00;99.90;;;;;;5065164;28;20082;-86
2023/01/06 06:46:15;;;;;;;12.02;8.07;;;10.00;99.90;;;;;;5049807;28;20075;-85
2023/01/06 06:48:41;;;;;;;13.80;8.65;;;10.00;99.90;;;;;;5063428;28;20381;-85
2023/01/06 06:51:09;;;;;;;12.30;6.68;;;10.00;99.90;;;;;;5046571;28;20062;-86
2023/01/06 06:53:36;;;;;;;14.57;8.45;;;10.00;99.90;;;;;;5049857;28;20044;-85
2023/01/06 06:56:04;;;;;;;13.65;8.73;;;10.00;99.90;;;;;;5063384;28;20067;-85
2023/01/06 06:58:30;;;;;;;12.52;7.82;;;10.00;99.90;;;;;;5050099;28;20426;-85
2023/01/06 07:00:55;;;;;;;12.00;7.13;;;10.00;99.90;;;;;;5066162;28;20040;-86
2023/01/06 07:03:21;;;;;;;10.30;6.97;;;10.00;99.90;;;;;;5067007;28;20040;-86
2023/01/06 07:05:49;;;;;;;12.05;6.53;;;10.00;99.90;;;;;;5047735;28;20086;-86
2023/01/06 07:08:14;;;;;;;8.65;6.03;;;10.10;99.90;;;;;;5065086;28;20499;-85
2023/01/06 07:10:40;;;;;;;9.73;7.00;;;10.10;99.90;;;;;;5050895;28;20044;-85
2023/01/06 07:13:06;;;;;;;9.80;5.88;;;10.10;99.90;;;;;;5065805;28;20145;-85
2023/01/06 07:15:32;;;;;;;10.35;5.95;;;10.00;99.90;;;;;;5050113;28;20048;-85
2023/01/06 07:18:05;;;;;;;9.07;5.88;;;10.00;99.90;;;;;;5048823;28;20045;-85
2023/01/06 07:20:33;;;;;;;7.75;4.95;;;10.00;99.90;;;;;;5048334;28;20079;-85
2023/01/06 07:22:58;;;;;;;7.40;4.63;;;10.10;99.90;;;;;;5063268;28;20044;-85
2023/01/06 07:25:24;;;;;;;5.88;4.28;;;10.10;99.90;;;;;;5079906;28;20037;-85
2023/01/06 07:27:59;;;;;;;6.88;3.90;;;10.10;99.90;;;;;;5049576;28;20040;-85
2023/01/06 07:30:25;;;;;;;6.07;4.10;;;10.20;99.90;;;;;;5049774;28;20492;-85
2023/01/06 07:32:51;;;;;;;6.05;3.80;;;10.20;99.90;;;;;;5065726;28;20075;-83
2023/01/06 07:35:18;;;;;;;8.55;4.53;;;10.20;99.90;;;;;;5047862;28;20056;-85
2023/01/06 07:37:44;;;;;;;6.50;4.10;;;10.20;99.90;;;;;;5049685;28;20040;-85
2023/01/06 07:40:10;;;;;;;4.97;3.80;;;10.30;99.90;;;;;;5063940;28;20059;-86
2023/01/06 07:42:36;;;;;;;5.65;3.80;;;10.30;99.90;;;;;;5048336;28;20489;-85
2023/01/06 07:45:06;;;;;;;3.65;2.70;;;10.30;99.90;;;;;;5047401;28;20044;-85
2023/01/06 07:47:32;;;;;;;5.68;2.78;;;10.20;99.90;;;;;;5082481;28;20044;-86
2023/01/06 07:49:58;;;;;;;8.52;2.53;;;10.10;99.90;;;;;;5062247;28;20048;-85
2023/01/06 07:52:23;;;;;;;6.00;2.60;;;9.90;99.90;;;;;;5049407;28;20044;-86
2023/01/06 07:54:49;;;;;;;7.95;2.50;;;9.80;99.90;;;;;;5064290;28;20424;-86
2023/01/06 07:57:14;;;;;;;4.85;2.50;;;9.70;99.90;;;;;;5048885;28;20444;-86
2023/01/06 07:59:40;;;;;;;4.65;2.20;;;9.60;99.90;;;;;;5049159;28;20033;-86
2023/01/06 08:02:06;;;;;;;6.10;2.00;;;9.50;99.90;;;;;;5048926;28;20495;-86
2023/01/06 08:04:34;;;;;;;5.55;2.25;;;9.40;99.90;;;;;;5046323;28;20033;-85
2023/01/06 08:06:59;;;;;;;6.00;2.10;;;9.40;99.90;;;;;;5048132;28;20072;-86
2023/01/06 08:09:25;;;;;;;4.30;1.80;;;9.30;99.90;;;;;;5063476;28;20538;-86
2023/01/06 08:11:51;;;;;;;6.47;2.03;;;9.10;99.90;;;;;;5065152;28;20393;-86
2023/01/06 08:14:16;;;;;;;5.03;2.10;;;9.10;99.90;;;;;;5045545;28;20063;-86
2023/01/06 08:16:42;;;;;;;10.85;2.00;;;9.00;99.90;;;;;;5063823;28;20079;-86
2023/01/06 08:19:07;;;;;;;8.25;1.95;;;8.90;99.90;;;;;;5048003;28;20056;-86
2023/01/06 08:21:33;;;;;;;6.22;1.80;;;8.80;99.90;;;;;;5046992;28;20036;-86
2023/01/06 08:23:58;;;;;;;4.75;1.88;;;8.70;99.90;;;;;;5063932;28;20039;-86
2023/01/06 08:26:24;;;;;;;4.10;1.60;;;8.60;99.90;;;;;;5044713;28;20048;-86
2023/01/06 08:28:50;;;;;;;4.60;1.77;;;8.60;99.90;;;;;;5047530;28;20581;-86
2023/01/06 08:31:19;;;;;;;4.78;1.90;;;8.60;99.90;;;;;;5062058;28;20045;-86
2023/01/06 08:33:45;;;;;;;7.82;2.47;;;8.60;99.90;;;;;;5049358;28;20041;-86
2023/01/06 08:36:15;;;;;;;6.13;2.00;;;8.60;99.90;;;;;;5048448;28;20036;-86
2023/01/06 08:38:41;;;;;;;6.13;1.90;;;8.60;99.90;;;;;;5048800;28;20465;-87
2023/01/06 08:41:07;;;;;;;9.00;2.00;;;8.60;99.90;;;;;;5061323;28;20056;-86
2023/01/06 08:43:34;;;;;;;9.00;1.90;;;8.50;99.90;;;;;;5048476;28;20044;-86
2023/01/06 08:46:03;;;;;;;8.23;2.35;;;8.50;99.90;;;;;;5063048;28;20032;-86
2023/01/06 08:48:29;;;;;;;8.20;2.20;;;8.50;99.90;;;;;;5062545;28;20040;-86
2023/01/06 08:50:55;;;;;;;8.38;2.10;;;8.50;99.90;;;;;;5047090;28;20474;-86
2023/01/06 08:53:21;;;;;;;8.10;1.98;;;8.50;99.90;;;;;;5065463;28;20503;-86
2023/01/06 08:55:47;;;;;;;12.82;2.40;;;8.50;99.90;;;;;;5048685;28;20044;-86
2023/01/06 08:58:13;;;;;;;13.45;2.38;;;8.50;99.90;;;;;;5046612;28;20128;-86
2023/01/06 09:00:40;;;;;;;10.65;2.22;;;8.50;99.90;;;;;;5063066;28;20086;-86
2023/01/06 09:03:06;;;;;;;10.80;2.33;;;8.50;99.90;;;;;;5061497;28;20094;-86
2023/01/06 09:05:32;;;;;;;9.90;2.58;;;8.50;99.90;;;;;;5063804;28;20032;-86
2023/01/06 09:07:57;;;;;;;15.55;2.58;;;8.50;99.90;;;;;;5064250;28;20071;-85
2023/01/06 09:10:23;;;;;;;13.48;2.47;;;8.50;99.90;;;;;;5046710;28;20045;-86
2023/01/06 09:12:49;;;;;;;8.63;2.08;;;8.60;99.90;;;;;;5045833;28;20161;-86
2023/01/06 09:15:15;;;;;;;8.38;2.08;;;8.60;99.90;;;;;;5047277;28;20043;-86
2023/01/06 09:17:40;;;;;;;9.82;2.58;;;8.60;99.90;;;;;;5045515;28;20533;-86
2023/01/06 09:20:06;;;;;;;11.95;2.40;;;8.60;99.90;;;;;;5046782;28;20473;-85
2023/01/06 09:22:32;;;;;;;12.88;2.83;;;8.60;99.90;;;;;;5061824;28;20033;-85
2023/01/06 09:24:57;;;;;;;14.10;2.65;;;8.70;99.90;;;;;;5063025;28;20102;-86
2023/01/06 09:27:23;;;;;;;13.23;2.70;;;8.70;99.90;;;;;;5046084;28;20048;-86
2023/01/06 09:29:50;;;;;;;11.55;2.65;;;8.80;99.90;;;;;;5060734;28;20155;-85
2023/01/06 09:32:15;;;;;;;12.02;2.45;;;8.80;99.90;;;;;;5047916;28;20044;-86
2023/01/06 09:34:41;;;;;;;14.02;2.88;;;8.90;99.90;;;;;;5048329;28;20036;-86
2023/01/06 09:37:07;;;;;;;13.43;2.40;;;8.90;99.90;;;;;;5047272;28;20040;-85
2023/01/06 09:39:33;;;;;;;9.18;2.45;;;8.90;99.90;;;;;;5047762;28;20044;-85
2023/01/06 09:42:20;;;;;;;13.80;2.80;;;9.00;99.90;;;;;;5047110;28;20396;-85
2023/01/06 09:44:56;;;;;;;14.20;2.60;;;9.10;99.90;;;;;;5047394;28;20094;-86
2023/01/06 09:47:33;;;;;;;13.57;3.00;;;9.20;99.90;;;;;;5045862;28;20139;-85
2023/01/06 09:50:11;;;;;;;12.35;3.03;;;9.30;99.90;;;;;;5079509;28;20051;-86
2023/01/06 09:52:44;;;;;;;14.55;2.97;;;9.30;99.90;;;;;;5062866;28;20088;-86
2023/01/06 09:55:29;;;;;;;15.73;3.03;;;9.30;99.90;;;;;;5062010;28;20040;-86
2023/01/06 09:58:01;;;;;;;13.07;2.92;;;9.30;99.90;;;;;;5046034;28;20041;-85
2023/01/06 10:00:38;;;;;;;11.30;2.90;;;9.40;99.90;;;;;;5044766;28;20049;-86
2023/01/06 10:03:05;;;;;;;8.38;3.00;;;9.60;99.90;;;;;;5047612;28;20503;-85
2023/01/06 10:05:54;;;;;;;12.20;2.35;;;9.60;99.90;;;;;;5047068;28;20051;-86
2023/01/06 10:08:26;;;;;;;10.95;2.63;;;9.70;99.90;;;;;;5045624;28;20427;-84
2023/01/06 10:11:07;;;;;;;7.40;2.13;;;9.80;99.90;;;;;;5047225;28;20040;-85
2023/01/06 10:13:41;;;;;;;11.00;2.35;;;9.90;99.90;;;;;;5052006;28;20040;-85
2023/01/06 10:16:19;;;;;;;11.60;2.28;;;9.80;99.90;;;;;;5048565;28;20060;-85
2023/01/06 10:18:53;;;;;;;10.30;1.90;;;9.80;99.90;;;;;;5049986;28;20040;-85
2023/01/06 10:21:44;;;;;;;10.25;2.40;;;9.80;99.90;;;;;;5050442;28;20082;-85
2023/01/06 10:24:44;;;;;;;12.02;2.42;;;9.90;99.90;;;;;;5066492;28;20489;-85
2023/01/06 10:27:50;;;;;;;9.05;2.55;;;10.00;99.90;;;;;;5051093;28;20051;-85
2023/01/06 10:30:31;;;;;;;12.65;2.42;;;10.10;99.90;;;;;;5029219;28;20405;-85
2023/01/06 10:32:57;;;;;;;13.05;2.35;;;10.20;99.90;;;;;;5043577;28;20509;-85
2023/01/06 10:35:26;;;;;;;10.45;2.20;;;10.30;99.90;;;;;;5043669;28;20102;-85
2023/01/06 10:37:53;;;;;;;9.48;2.50;;;10.30;99.90;;;;;;5070112;28;20054;-85
2023/01/06 10:40:24;;;;;;;8.57;2.95;;;10.40;99.90;;;;;;5057338;28;20408;-85
2023/01/06 10:43:11;;;;;;;8.85;2.20;;;10.40;99.90;;;;;;5062683;28;20145;-85
2023/01/06 10:45:40;;;;;;;10.68;2.60;;;10.40;99.90;;;;;;5046048;28;20045;-85
2023/01/06 10:48:12;;;;;;;7.43;2.50;;;10.40;99.90;;;;;;5047601;28;20214;-85
2023/01/06 10:50:39;;;;;;;13.10;2.38;;;10.30;99.90;;;;;;5028702;28;20056;-85
2023/01/06 10:53:04;;;;;;;8.55;2.05;;;10.30;99.90;;;;;;5062425;28;20137;-85
2023/01/06 10:55:31;;;;;;;11.95;2.00;;;10.30;99.90;;;;;;5063029;28;20498;-85
2023/01/06 10:58:02;;;;;;;8.98;2.38;;;10.20;99.90;;;;;;5049031;28;20059;-85
2023/01/06 11:00:28;;;;;;;10.27;2.38;;;10.20;99.90;;;;;;5067212;28;20044;-85
2023/01/06 11:03:02;;;;;;;6.50;1.80;;;10.20;99.90;;;;;;5061592;28;20035;-85
2023/01/06 11:05:30;;;;;;;7.90;2.60;;;10.10;99.90;;;;;;5063074;28;20041;-85
2023/01/06 11:08:13;;;;;;;12.70;2.65;;;10.20;99.90;;;;;;5064031;28;20511;-85
2023/01/06 11:10:51;;;;;;;8.35;2.35;;;10.20;99.90;;;;;;5049813;28;20044;-85
2023/01/06 11:13:25;;;;;;;10.80;2.13;;;10.10;99.90;;;;;;5065190;28;20139;-85
2023/01/06 11:15:52;;;;;;;11.93;2.50;;;10.00;99.90;;;;;;5049832;28;20044;-84
2023/01/06 11:18:26;;;;;;;11.05;2.33;;;10.00;99.90;;;;;;5049358;28;20068;-85
2023/01/06 11:21:15;;;;;;;14.73;3.15;;;9.90;99.90;;;;;;5065077;28;20033;-85
2023/01/06 11:23:42;;;;;;;9.63;2.53;;;10.00;99.90;;;;;;5045447;28;20068;-85
2023/01/06 11:26:11;;;;;;;11.02;2.72;;;10.00;99.90;;;;;;5065857;28;20043;-85
2023/01/06 11:28:37;;;;;;;9.77;2.65;;;10.20;99.90;;;;;;5041864;28;20448;-85
2023/01/06 11:31:06;;;;;;;12.85;2.47;;;10.30;99.90;;;;;;5066997;28;20039;-85
2023/01/06 11:33:35;;;;;;;8.25;2.28;;;10.40;99.90;;;;;;5062687;28;20070;-85
2023/01/06 11:36:10;;;;;;;10.38;1.98;;;10.60;99.90;;;;;;5048504;28;20058;-85
2023/01/06 11:38:45;;;;;;;14.13;2.65;;;10.70;99.90;;;;;;5063902;28;20042;-86
2023/01/06 11:41:17;;;;;;;10.90;2.28;;;10.70;99.90;;;;;;5060423;28;20041;-83
2023/01/06 11:43:45;;;;;;;10.50;2.35;;;10.90;99.90;;;;;;5050006;28;20070;-83
2023/01/06 11:46:13;;;;;;;10.77;2.58;;;10.90;99.90;;;;;;5064264;28;20043;-83
2023/01/06 11:48:47;;;;;;;13.02;2.78;;;11.00;99.90;;;;;;5061243;28;20501;-83
2023/01/06 11:51:13;;;;;;;12.43;2.63;;;11.10;99.90;;;;;;5064617;28;20038;-83
2023/01/06 11:53:53;;;;;;;13.25;2.40;;;11.10;99.90;;;;;;5045042;28;20456;-83
2023/01/06 11:56:18;;;;;;;10.57;2.50;;;11.10;99.90;;;;;;5047522;28;20398;-83
2023/01/06 11:58:44;;;;;;;8.05;2.00;;;11.00;99.90;;;;;;5045094;28;20453;-83
2023/01/06 12:01:12;;;;;;;7.72;2.10;;;11.00;99.90;;;;;;5045867;28;20911;-83
2023/01/06 12:03:42;;;;;;;9.13;2.58;;;11.10;99.90;;;;;;5062084;28;20048;-84
2023/01/06 12:06:19;;;;;;;8.82;2.20;;;11.10;99.90;;;;;;5059468;28;20083;-83
2023/01/06 12:09:03;;;;;;;5.68;1.92;;;11.10;99.90;;;;;;5059091;28;20033;-83
2023/01/06 12:11:43;;;;;;;4.90;1.58;;;11.10;99.90;;;;;;5059925;28;20044;-83
2023/01/06 12:14:19;;;;;;;10.90;2.10;;;11.00;99.90;;;;;;5041490;28;20045;-83
2023/01/06 12:17:03;;;;;;;10.52;2.28;;;10.90;99.90;;;;;;5045326;28;20041;-83
2023/01/06 12:19:47;;;;;;;11.07;2.42;;;10.80;99.90;;;;;;5044316;28;20043;-83
2023/01/06 12:22:27;;;;;;;13.77;2.10;;;10.70;99.90;;;;;;5042035;28;20238;-83
2023/01/06 12:24:55;;;;;;;13.20;2.30;;;10.60;99.90;;;;;;5044140;28;20469;-83
2023/01/06 12:27:33;;;;;;;10.05;2.30;;;10.60;99.90;;;;;;5043542;28;20044;-83
2023/01/06 12:30:03;;;;;;;5.78;1.90;;;10.50;99.90;;;;;;5057757;28;20039;-83
2023/01/06 12:32:39;;;;;;;11.10;2.40;;;10.50;99.90;;;;;;5046018;28;20090;-85
2023/01/06 12:35:10;;;;;;;14.15;2.33;;;10.40;99.90;;;;;;5040692;28;20048;-84
2023/01/06 12:37:44;;;;;;;9.75;2.20;;;10.30;99.90;;;;;;5061052;28;20047;-84
2023/01/06 12:40:09;;;;;;;9.25;2.33;;;10.30;99.90;;;;;;5042674;28;20838;-84
2023/01/06 12:42:45;;;;;;;9.80;2.40;;;10.20;99.90;;;;;;5043054;28;20044;-84
2023/01/06 12:45:31;;;;;;;11.52;2.72;;;10.20;99.90;;;;;;5048200;28;20055;-84
2023/01/06 12:47:58;;;;;;;12.65;2.60;;;10.10;99.90;;;;;;5076955;28;20037;-84
2023/01/06 12:50:38;;;;;;;9.85;2.58;;;10.10;99.90;;;;;;5046164;28;20036;-84
2023/01/06 12:53:20;;;;;;;9.63;2.35;;;10.10;99.90;;;;;;5081786;28;20041;-84
2023/01/06 12:56:02;;;;;;;14.05;2.75;;;10.10;99.90;;;;;;5065667;28;20036;-84
2023/01/06 12:58:43;;;;;;;9.95;2.40;;;10.10;99.90;;;;;;5046297;28;20354;-83